sensor_id;sensor_type;location;lat;lon;timestamp;P1;durP1;ratioP1;P2;durP2;ratioP2
2966;SDS011;1493;51.496;7.210;2024-03-02T00:00:22;3.27;;;2.10;;
2966;SDS011;1493;51.496;7.210;2024-03-02T00:02:51;3.03;;;2.00;;
2966;SDS011;1493;51.496;7.210;2024-03-02T00:05:19;2.80;;;1.60;;
2966;SDS011;1493;51.496;7.210;2024-03-02T00:07:47;2.53;;;1.50;;
2966;SDS011;1493;51.496;7.210;2024-03-02T00:10:21;2.77;;;1.60;;
2966;SDS011;1493;51.496;7.210;2024-03-02T00:12:54;2.80;;;1.87;;
2966;SDS011;1493;51.496;7.210;2024-03-02T00:15:34;3.60;;;1.87;;
2966;SDS011;1493;51.496;7.210;2024-03-02T00:18:09;2.90;;;1.70;;
2966;SDS011;1493;51.496;7.210;2024-03-02T00:20:37;4.33;;;1.97;;
2966;SDS011;1493;51.496;7.210;2024-03-02T00:23:05;2.43;;;1.30;;
2966;SDS011;1493;51.496;7.210;2024-03-02T00:25:38;3.03;;;1.60;;
2966;SDS011;1493;51.496;7.210;2024-03-02T00:28:10;2.20;;;1.27;;
2966;SDS011;1493;51.496;7.210;2024-03-02T00:30:47;2.53;;;1.70;;
2966;SDS011;1493;51.496;7.210;2024-03-02T00:33:22;2.93;;;1.40;;
2966;SDS011;1493;51.496;7.210;2024-03-02T00:35:50;4.13;;;1.53;;
2966;SDS011;1493;51.496;7.210;2024-03-02T00:38:17;2.57;;;1.37;;
2966;SDS011;1493;51.496;7.210;2024-03-02T00:40:44;5.07;;;1.57;;
2966;SDS011;1493;51.496;7.210;2024-03-02T00:46:07;2.87;;;1.27;;
2966;SDS011;1493;51.496;7.210;2024-03-02T00:48:35;3.17;;;1.60;;
2966;SDS011;1493;51.496;7.210;2024-03-02T00:51:03;3.00;;;1.73;;
2966;SDS011;1493;51.496;7.210;2024-03-02T00:53:30;2.53;;;1.33;;
2966;SDS011;1493;51.496;7.210;2024-03-02T00:55:58;2.10;;;1.20;;
2966;SDS011;1493;51.496;7.210;2024-03-02T00:58:25;2.30;;;1.53;;
2966;SDS011;1493;51.496;7.210;2024-03-02T01:00:52;3.10;;;1.60;;
2966;SDS011;1493;51.496;7.210;2024-03-02T01:03:19;3.93;;;1.40;;
2966;SDS011;1493;51.496;7.210;2024-03-02T01:05:47;1.73;;;1.00;;
2966;SDS011;1493;51.496;7.210;2024-03-02T01:08:14;1.80;;;1.20;;
2966;SDS011;1493;51.496;7.210;2024-03-02T01:10:41;2.00;;;1.10;;
2966;SDS011;1493;51.496;7.210;2024-03-02T01:13:08;2.47;;;1.43;;
2966;SDS011;1493;51.496;7.210;2024-03-02T01:15:35;2.30;;;1.13;;
2966;SDS011;1493;51.496;7.210;2024-03-02T01:18:02;2.40;;;1.00;;
2966;SDS011;1493;51.496;7.210;2024-03-02T01:20:29;2.80;;;1.00;;
2966;SDS011;1493;51.496;7.210;2024-03-02T01:22:57;2.47;;;1.27;;
2966;SDS011;1493;51.496;7.210;2024-03-02T01:25:24;1.80;;;1.00;;
2966;SDS011;1493;51.496;7.210;2024-03-02T01:27:51;2.73;;;1.00;;
2966;SDS011;1493;51.496;7.210;2024-03-02T01:30:18;2.00;;;1.17;;
2966;SDS011;1493;51.496;7.210;2024-03-02T01:32:45;2.40;;;1.40;;
2966;SDS011;1493;51.496;7.210;2024-03-02T01:35:11;2.23;;;1.10;;
2966;SDS011;1493;51.496;7.210;2024-03-02T01:37:39;2.70;;;1.40;;
2966;SDS011;1493;51.496;7.210;2024-03-02T01:40:08;3.50;;;1.40;;
2966;SDS011;1493;51.496;7.210;2024-03-02T01:42:36;3.63;;;1.10;;
2966;SDS011;1493;51.496;7.210;2024-03-02T01:45:04;2.77;;;1.40;;
2966;SDS011;1493;51.496;7.210;2024-03-02T01:47:33;2.20;;;1.20;;
2966;SDS011;1493;51.496;7.210;2024-03-02T01:50:00;2.10;;;1.10;;
2966;SDS011;1493;51.496;7.210;2024-03-02T01:52:27;2.30;;;1.03;;
2966;SDS011;1493;51.496;7.210;2024-03-02T01:54:55;3.40;;;1.13;;
2966;SDS011;1493;51.496;7.210;2024-03-02T01:57:23;1.97;;;1.17;;
2966;SDS011;1493;51.496;7.210;2024-03-02T01:59:50;2.90;;;1.10;;
2966;SDS011;1493;51.496;7.210;2024-03-02T02:02:17;5.30;;;1.90;;
2966;SDS011;1493;51.496;7.210;2024-03-02T02:04:45;2.87;;;1.10;;
2966;SDS011;1493;51.496;7.210;2024-03-02T02:07:12;2.57;;;1.17;;
2966;SDS011;1493;51.496;7.210;2024-03-02T02:09:39;1.80;;;0.90;;
2966;SDS011;1493;51.496;7.210;2024-03-02T02:12:07;2.07;;;1.03;;
2966;SDS011;1493;51.496;7.210;2024-03-02T02:14:36;1.90;;;0.80;;
2966;SDS011;1493;51.496;7.210;2024-03-02T02:17:05;1.93;;;1.20;;
2966;SDS011;1493;51.496;7.210;2024-03-02T02:19:31;3.80;;;1.37;;
2966;SDS011;1493;51.496;7.210;2024-03-02T02:22:00;2.20;;;1.30;;
2966;SDS011;1493;51.496;7.210;2024-03-02T02:24:26;2.00;;;1.10;;
2966;SDS011;1493;51.496;7.210;2024-03-02T02:26:53;2.27;;;1.10;;
2966;SDS011;1493;51.496;7.210;2024-03-02T02:29:20;3.03;;;1.23;;
2966;SDS011;1493;51.496;7.210;2024-03-02T02:31:47;3.40;;;1.33;;
2966;SDS011;1493;51.496;7.210;2024-03-02T02:34:14;3.13;;;1.50;;
2966;SDS011;1493;51.496;7.210;2024-03-02T02:36:41;3.10;;;1.17;;
2966;SDS011;1493;51.496;7.210;2024-03-02T02:39:11;1.67;;;0.90;;
2966;SDS011;1493;51.496;7.210;2024-03-02T02:41:40;2.03;;;1.00;;
2966;SDS011;1493;51.496;7.210;2024-03-02T02:44:07;1.97;;;1.00;;
2966;SDS011;1493;51.496;7.210;2024-03-02T02:46:36;2.43;;;1.10;;
2966;SDS011;1493;51.496;7.210;2024-03-02T02:49:03;2.93;;;1.03;;
2966;SDS011;1493;51.496;7.210;2024-03-02T02:51:30;1.90;;;1.00;;
2966;SDS011;1493;51.496;7.210;2024-03-02T02:53:57;4.40;;;1.23;;
2966;SDS011;1493;51.496;7.210;2024-03-02T02:56:25;1.90;;;1.13;;
2966;SDS011;1493;51.496;7.210;2024-03-02T02:58:52;2.47;;;1.47;;
2966;SDS011;1493;51.496;7.210;2024-03-02T03:01:18;2.13;;;1.00;;
2966;SDS011;1493;51.496;7.210;2024-03-02T03:03:45;2.50;;;1.03;;
2966;SDS011;1493;51.496;7.210;2024-03-02T03:06:12;2.10;;;1.20;;
2966;SDS011;1493;51.496;7.210;2024-03-02T03:08:39;1.70;;;0.93;;
2966;SDS011;1493;51.496;7.210;2024-03-02T03:11:06;3.60;;;1.03;;
2966;SDS011;1493;51.496;7.210;2024-03-02T03:13:35;1.83;;;1.17;;
2966;SDS011;1493;51.496;7.210;2024-03-02T03:16:02;2.33;;;1.30;;
2966;SDS011;1493;51.496;7.210;2024-03-02T03:18:30;2.80;;;1.20;;
2966;SDS011;1493;51.496;7.210;2024-03-02T03:20:56;2.93;;;1.20;;
2966;SDS011;1493;51.496;7.210;2024-03-02T03:23:23;2.10;;;1.10;;
2966;SDS011;1493;51.496;7.210;2024-03-02T03:25:51;3.63;;;1.40;;
2966;SDS011;1493;51.496;7.210;2024-03-02T03:28:17;2.40;;;1.07;;
2966;SDS011;1493;51.496;7.210;2024-03-02T03:30:45;2.20;;;0.90;;
2966;SDS011;1493;51.496;7.210;2024-03-02T03:33:12;1.97;;;1.37;;
2966;SDS011;1493;51.496;7.210;2024-03-02T03:35:39;5.50;;;1.10;;
2966;SDS011;1493;51.496;7.210;2024-03-02T03:38:06;1.97;;;1.10;;
2966;SDS011;1493;51.496;7.210;2024-03-02T03:40:33;2.43;;;1.10;;
2966;SDS011;1493;51.496;7.210;2024-03-02T03:42:59;2.27;;;1.10;;
2966;SDS011;1493;51.496;7.210;2024-03-02T03:45:26;3.30;;;1.37;;
2966;SDS011;1493;51.496;7.210;2024-03-02T03:47:54;2.83;;;1.10;;
2966;SDS011;1493;51.496;7.210;2024-03-02T03:50:21;2.43;;;1.17;;
2966;SDS011;1493;51.496;7.210;2024-03-02T03:52:48;4.00;;;1.27;;
2966;SDS011;1493;51.496;7.210;2024-03-02T03:55:15;2.10;;;1.10;;
2966;SDS011;1493;51.496;7.210;2024-03-02T03:57:42;1.90;;;1.10;;
2966;SDS011;1493;51.496;7.210;2024-03-02T04:00:09;2.43;;;1.10;;
2966;SDS011;1493;51.496;7.210;2024-03-02T04:02:37;3.03;;;1.30;;
2966;SDS011;1493;51.496;7.210;2024-03-02T04:05:05;2.00;;;0.90;;
2966;SDS011;1493;51.496;7.210;2024-03-02T04:07:35;2.67;;;0.80;;
2966;SDS011;1493;51.496;7.210;2024-03-02T04:10:06;2.00;;;1.20;;
2966;SDS011;1493;51.496;7.210;2024-03-02T04:12:34;2.73;;;1.10;;
2966;SDS011;1493;51.496;7.210;2024-03-02T04:15:02;2.57;;;1.23;;
2966;SDS011;1493;51.496;7.210;2024-03-02T04:17:31;1.70;;;1.00;;
2966;SDS011;1493;51.496;7.210;2024-03-02T04:19:59;2.67;;;1.10;;
2966;SDS011;1493;51.496;7.210;2024-03-02T04:22:27;3.10;;;0.90;;
2966;SDS011;1493;51.496;7.210;2024-03-02T04:24:54;5.90;;;1.30;;
2966;SDS011;1493;51.496;7.210;2024-03-02T04:27:21;2.47;;;1.00;;
2966;SDS011;1493;51.496;7.210;2024-03-02T04:29:47;3.00;;;1.00;;
2966;SDS011;1493;51.496;7.210;2024-03-02T04:32:14;2.37;;;0.80;;
2966;SDS011;1493;51.496;7.210;2024-03-02T04:34:41;2.10;;;1.20;;
2966;SDS011;1493;51.496;7.210;2024-03-02T04:37:08;2.50;;;1.10;;
2966;SDS011;1493;51.496;7.210;2024-03-02T04:39:38;2.93;;;1.13;;
2966;SDS011;1493;51.496;7.210;2024-03-02T04:42:05;4.13;;;1.13;;
2966;SDS011;1493;51.496;7.210;2024-03-02T04:44:32;2.43;;;0.90;;
2966;SDS011;1493;51.496;7.210;2024-03-02T04:46:59;2.00;;;1.10;;
2966;SDS011;1493;51.496;7.210;2024-03-02T04:49:25;3.20;;;1.10;;
2966;SDS011;1493;51.496;7.210;2024-03-02T04:51:52;1.93;;;1.00;;
2966;SDS011;1493;51.496;7.210;2024-03-02T04:54:19;2.93;;;1.37;;
2966;SDS011;1493;51.496;7.210;2024-03-02T04:56:47;2.77;;;1.00;;
2966;SDS011;1493;51.496;7.210;2024-03-02T04:59:15;2.30;;;1.20;;
2966;SDS011;1493;51.496;7.210;2024-03-02T05:01:43;4.23;;;1.03;;
2966;SDS011;1493;51.496;7.210;2024-03-02T05:04:10;2.57;;;1.20;;
2966;SDS011;1493;51.496;7.210;2024-03-02T05:06:37;2.77;;;1.30;;
2966;SDS011;1493;51.496;7.210;2024-03-02T05:09:05;2.17;;;0.93;;
2966;SDS011;1493;51.496;7.210;2024-03-02T05:11:32;2.30;;;1.20;;
2966;SDS011;1493;51.496;7.210;2024-03-02T05:14:25;2.57;;;1.27;;
2966;SDS011;1493;51.496;7.210;2024-03-02T05:16:51;1.90;;;0.90;;
2966;SDS011;1493;51.496;7.210;2024-03-02T05:19:18;2.30;;;1.17;;
2966;SDS011;1493;51.496;7.210;2024-03-02T05:21:45;2.50;;;0.90;;
2966;SDS011;1493;51.496;7.210;2024-03-02T05:24:11;2.67;;;0.90;;
2966;SDS011;1493;51.496;7.210;2024-03-02T05:26:38;2.13;;;1.30;;
2966;SDS011;1493;51.496;7.210;2024-03-02T05:29:05;2.20;;;1.20;;
2966;SDS011;1493;51.496;7.210;2024-03-02T05:31:33;1.50;;;0.80;;
2966;SDS011;1493;51.496;7.210;2024-03-02T05:34:00;3.00;;;1.00;;
2966;SDS011;1493;51.496;7.210;2024-03-02T05:36:27;1.97;;;1.20;;
2966;SDS011;1493;51.496;7.210;2024-03-02T05:38:54;1.70;;;1.03;;
2966;SDS011;1493;51.496;7.210;2024-03-02T05:41:22;3.37;;;1.77;;
2966;SDS011;1493;51.496;7.210;2024-03-02T05:43:49;1.80;;;1.03;;
2966;SDS011;1493;51.496;7.210;2024-03-02T05:46:16;5.33;;;1.33;;
2966;SDS011;1493;51.496;7.210;2024-03-02T05:48:44;2.03;;;1.13;;
2966;SDS011;1493;51.496;7.210;2024-03-02T05:51:11;2.77;;;1.20;;
2966;SDS011;1493;51.496;7.210;2024-03-02T05:53:37;3.30;;;1.27;;
2966;SDS011;1493;51.496;7.210;2024-03-02T05:56:04;2.63;;;1.23;;
2966;SDS011;1493;51.496;7.210;2024-03-02T05:58:31;2.77;;;1.27;;
2966;SDS011;1493;51.496;7.210;2024-03-02T06:01:11;2.77;;;1.30;;
2966;SDS011;1493;51.496;7.210;2024-03-02T06:03:38;3.73;;;1.40;;
2966;SDS011;1493;51.496;7.210;2024-03-02T06:06:06;2.57;;;1.40;;
2966;SDS011;1493;51.496;7.210;2024-03-02T06:08:33;3.23;;;1.47;;
2966;SDS011;1493;51.496;7.210;2024-03-02T06:11:00;2.70;;;1.27;;
2966;SDS011;1493;51.496;7.210;2024-03-02T06:13:27;5.80;;;1.73;;
2966;SDS011;1493;51.496;7.210;2024-03-02T06:15:53;2.30;;;1.40;;
2966;SDS011;1493;51.496;7.210;2024-03-02T06:18:20;3.07;;;1.50;;
2966;SDS011;1493;51.496;7.210;2024-03-02T06:20:47;3.83;;;1.57;;
2966;SDS011;1493;51.496;7.210;2024-03-02T06:23:15;2.80;;;1.43;;
2966;SDS011;1493;51.496;7.210;2024-03-02T06:25:42;2.70;;;1.67;;
2966;SDS011;1493;51.496;7.210;2024-03-02T06:28:11;3.50;;;1.70;;
2966;SDS011;1493;51.496;7.210;2024-03-02T06:30:40;3.30;;;1.77;;
2966;SDS011;1493;51.496;7.210;2024-03-02T06:33:07;3.80;;;1.87;;
2966;SDS011;1493;51.496;7.210;2024-03-02T06:35:34;2.60;;;1.60;;
2966;SDS011;1493;51.496;7.210;2024-03-02T06:38:01;3.00;;;2.10;;
2966;SDS011;1493;51.496;7.210;2024-03-02T06:40:29;2.87;;;1.90;;
2966;SDS011;1493;51.496;7.210;2024-03-02T06:42:56;3.27;;;1.70;;
2966;SDS011;1493;51.496;7.210;2024-03-02T06:45:23;3.43;;;2.07;;
2966;SDS011;1493;51.496;7.210;2024-03-02T06:47:50;3.20;;;2.10;;
2966;SDS011;1493;51.496;7.210;2024-03-02T06:50:16;3.40;;;2.10;;
2966;SDS011;1493;51.496;7.210;2024-03-02T06:52:43;3.40;;;2.20;;
2966;SDS011;1493;51.496;7.210;2024-03-02T06:55:10;3.43;;;2.33;;
2966;SDS011;1493;51.496;7.210;2024-03-02T06:57:38;2.43;;;1.77;;
2966;SDS011;1493;51.496;7.210;2024-03-02T07:00:04;4.07;;;2.40;;
2966;SDS011;1493;51.496;7.210;2024-03-02T07:02:34;2.93;;;2.00;;
2966;SDS011;1493;51.496;7.210;2024-03-02T07:05:01;4.07;;;2.30;;
2966;SDS011;1493;51.496;7.210;2024-03-02T07:07:28;4.33;;;2.43;;
2966;SDS011;1493;51.496;7.210;2024-03-02T07:09:54;4.17;;;2.13;;
2966;SDS011;1493;51.496;7.210;2024-03-02T07:12:21;4.90;;;2.53;;
2966;SDS011;1493;51.496;7.210;2024-03-02T07:14:49;3.17;;;1.90;;
2966;SDS011;1493;51.496;7.210;2024-03-02T07:17:34;4.43;;;2.67;;
2966;SDS011;1493;51.496;7.210;2024-03-02T07:20:02;6.10;;;3.00;;
2966;SDS011;1493;51.496;7.210;2024-03-02T07:22:29;3.47;;;2.23;;
2966;SDS011;1493;51.496;7.210;2024-03-02T07:24:56;4.73;;;2.30;;
2966;SDS011;1493;51.496;7.210;2024-03-02T07:27:23;4.33;;;2.00;;
2966;SDS011;1493;51.496;7.210;2024-03-02T07:29:51;4.20;;;2.23;;
2966;SDS011;1493;51.496;7.210;2024-03-02T07:32:18;2.90;;;1.73;;
2966;SDS011;1493;51.496;7.210;2024-03-02T07:34:45;3.70;;;1.97;;
2966;SDS011;1493;51.496;7.210;2024-03-02T07:37:11;2.90;;;1.70;;
2966;SDS011;1493;51.496;7.210;2024-03-02T07:39:38;4.03;;;2.17;;
2966;SDS011;1493;51.496;7.210;2024-03-02T07:42:05;3.10;;;2.00;;
2966;SDS011;1493;51.496;7.210;2024-03-02T07:44:32;4.10;;;2.33;;
2966;SDS011;1493;51.496;7.210;2024-03-02T07:47:01;2.60;;;1.67;;
2966;SDS011;1493;51.496;7.210;2024-03-02T07:49:27;6.87;;;2.37;;
2966;SDS011;1493;51.496;7.210;2024-03-02T07:51:54;3.53;;;2.03;;
2966;SDS011;1493;51.496;7.210;2024-03-02T07:54:21;4.33;;;2.50;;
2966;SDS011;1493;51.496;7.210;2024-03-02T07:56:48;2.73;;;1.60;;
2966;SDS011;1493;51.496;7.210;2024-03-02T07:59:15;4.07;;;2.30;;
2966;SDS011;1493;51.496;7.210;2024-03-02T08:01:42;2.90;;;2.00;;
2966;SDS011;1493;51.496;7.210;2024-03-02T08:04:10;3.90;;;2.30;;
2966;SDS011;1493;51.496;7.210;2024-03-02T08:06:37;4.43;;;2.43;;
2966;SDS011;1493;51.496;7.210;2024-03-02T08:09:04;4.30;;;2.27;;
2966;SDS011;1493;51.496;7.210;2024-03-02T08:11:34;4.30;;;2.13;;
2966;SDS011;1493;51.496;7.210;2024-03-02T08:14:02;3.77;;;1.90;;
2966;SDS011;1493;51.496;7.210;2024-03-02T08:16:29;3.53;;;1.93;;
2966;SDS011;1493;51.496;7.210;2024-03-02T08:18:56;3.70;;;2.10;;
2966;SDS011;1493;51.496;7.210;2024-03-02T08:21:25;3.70;;;1.90;;
2966;SDS011;1493;51.496;7.210;2024-03-02T08:23:55;3.57;;;1.70;;
2966;SDS011;1493;51.496;7.210;2024-03-02T08:26:23;4.13;;;2.03;;
2966;SDS011;1493;51.496;7.210;2024-03-02T08:28:49;3.90;;;2.10;;
2966;SDS011;1493;51.496;7.210;2024-03-02T08:31:16;3.73;;;1.80;;
2966;SDS011;1493;51.496;7.210;2024-03-02T08:33:43;2.37;;;1.37;;
2966;SDS011;1493;51.496;7.210;2024-03-02T08:36:10;4.10;;;1.70;;
2966;SDS011;1493;51.496;7.210;2024-03-02T08:38:38;6.13;;;2.20;;
2966;SDS011;1493;51.496;7.210;2024-03-02T08:41:05;2.33;;;1.60;;
2966;SDS011;1493;51.496;7.210;2024-03-02T08:43:33;2.60;;;1.53;;
2966;SDS011;1493;51.496;7.210;2024-03-02T08:46:00;5.97;;;1.50;;
2966;SDS011;1493;51.496;7.210;2024-03-02T08:48:27;3.90;;;1.60;;
2966;SDS011;1493;51.496;7.210;2024-03-02T08:50:54;4.37;;;1.60;;
2966;SDS011;1493;51.496;7.210;2024-03-02T08:53:21;5.63;;;1.80;;
2966;SDS011;1493;51.496;7.210;2024-03-02T08:55:49;3.03;;;1.67;;
2966;SDS011;1493;51.496;7.210;2024-03-02T08:58:16;2.60;;;1.60;;
2966;SDS011;1493;51.496;7.210;2024-03-02T09:00:43;3.13;;;1.60;;
2966;SDS011;1493;51.496;7.210;2024-03-02T09:03:10;3.07;;;1.50;;
2966;SDS011;1493;51.496;7.210;2024-03-02T09:05:37;2.80;;;1.57;;
2966;SDS011;1493;51.496;7.210;2024-03-02T09:08:04;2.33;;;1.30;;
2966;SDS011;1493;51.496;7.210;2024-03-02T09:10:31;4.43;;;1.23;;
2966;SDS011;1493;51.496;7.210;2024-03-02T09:13:00;1.80;;;1.00;;
2966;SDS011;1493;51.496;7.210;2024-03-02T09:15:27;2.80;;;1.90;;
2966;SDS011;1493;51.496;7.210;2024-03-02T09:17:53;2.20;;;1.23;;
2966;SDS011;1493;51.496;7.210;2024-03-02T09:20:20;3.30;;;1.30;;
2966;SDS011;1493;51.496;7.210;2024-03-02T09:22:48;3.50;;;1.87;;
2966;SDS011;1493;51.496;7.210;2024-03-02T09:25:14;2.33;;;1.60;;
2966;SDS011;1493;51.496;7.210;2024-03-02T09:27:41;2.13;;;1.00;;
2966;SDS011;1493;51.496;7.210;2024-03-02T09:30:10;2.27;;;1.30;;
2966;SDS011;1493;51.496;7.210;2024-03-02T09:32:38;3.10;;;1.23;;
2966;SDS011;1493;51.496;7.210;2024-03-02T09:35:05;2.40;;;1.20;;
2966;SDS011;1493;51.496;7.210;2024-03-02T09:37:34;2.70;;;1.30;;
2966;SDS011;1493;51.496;7.210;2024-03-02T09:40:01;4.20;;;1.40;;
2966;SDS011;1493;51.496;7.210;2024-03-02T09:42:28;3.00;;;1.10;;
2966;SDS011;1493;51.496;7.210;2024-03-02T09:44:55;2.50;;;1.20;;
2966;SDS011;1493;51.496;7.210;2024-03-02T09:47:24;2.33;;;0.90;;
2966;SDS011;1493;51.496;7.210;2024-03-02T09:49:51;3.30;;;1.10;;
2966;SDS011;1493;51.496;7.210;2024-03-02T09:52:18;3.23;;;1.20;;
2966;SDS011;1493;51.496;7.210;2024-03-02T09:54:47;2.10;;;1.03;;
2966;SDS011;1493;51.496;7.210;2024-03-02T09:57:14;2.63;;;1.37;;
2966;SDS011;1493;51.496;7.210;2024-03-02T09:59:41;1.93;;;1.30;;
2966;SDS011;1493;51.496;7.210;2024-03-02T10:02:10;2.17;;;1.07;;
2966;SDS011;1493;51.496;7.210;2024-03-02T10:04:38;1.80;;;1.00;;
2966;SDS011;1493;51.496;7.210;2024-03-02T10:07:11;1.80;;;0.97;;
2966;SDS011;1493;51.496;7.210;2024-03-02T10:09:39;3.10;;;1.10;;
2966;SDS011;1493;51.496;7.210;2024-03-02T10:12:07;2.20;;;1.00;;
2966;SDS011;1493;51.496;7.210;2024-03-02T10:14:36;1.80;;;1.10;;
2966;SDS011;1493;51.496;7.210;2024-03-02T10:17:03;2.10;;;1.00;;
2966;SDS011;1493;51.496;7.210;2024-03-02T10:19:32;3.50;;;0.97;;
2966;SDS011;1493;51.496;7.210;2024-03-02T10:22:01;3.20;;;1.43;;
2966;SDS011;1493;51.496;7.210;2024-03-02T10:24:34;1.93;;;0.80;;
2966;SDS011;1493;51.496;7.210;2024-03-02T10:27:06;1.80;;;1.17;;
2966;SDS011;1493;51.496;7.210;2024-03-02T10:29:36;2.20;;;0.90;;
2966;SDS011;1493;51.496;7.210;2024-03-02T10:32:04;1.90;;;1.00;;
2966;SDS011;1493;51.496;7.210;2024-03-02T10:34:32;1.83;;;1.13;;
2966;SDS011;1493;51.496;7.210;2024-03-02T10:37:00;3.00;;;1.10;;
2966;SDS011;1493;51.496;7.210;2024-03-02T10:39:28;2.37;;;1.07;;
2966;SDS011;1493;51.496;7.210;2024-03-02T10:41:56;2.47;;;1.23;;
2966;SDS011;1493;51.496;7.210;2024-03-02T10:44:24;3.20;;;1.77;;
2966;SDS011;1493;51.496;7.210;2024-03-02T10:46:52;1.80;;;0.90;;
2966;SDS011;1493;51.496;7.210;2024-03-02T10:49:22;2.00;;;1.00;;
2966;SDS011;1493;51.496;7.210;2024-03-02T10:51:50;2.23;;;1.00;;
2966;SDS011;1493;51.496;7.210;2024-03-02T10:54:18;2.10;;;1.20;;
2966;SDS011;1493;51.496;7.210;2024-03-02T10:56:51;2.87;;;1.03;;
2966;SDS011;1493;51.496;7.210;2024-03-02T10:59:21;2.03;;;0.93;;
2966;SDS011;1493;51.496;7.210;2024-03-02T11:01:53;2.60;;;1.40;;
2966;SDS011;1493;51.496;7.210;2024-03-02T11:04:22;2.70;;;1.43;;
2966;SDS011;1493;51.496;7.210;2024-03-02T11:06:51;1.83;;;1.20;;
2966;SDS011;1493;51.496;7.210;2024-03-02T11:09:20;1.70;;;1.03;;
2966;SDS011;1493;51.496;7.210;2024-03-02T11:11:49;2.83;;;1.17;;
2966;SDS011;1493;51.496;7.210;2024-03-02T11:14:23;1.83;;;0.97;;
2966;SDS011;1493;51.496;7.210;2024-03-02T11:16:51;2.03;;;1.00;;
2966;SDS011;1493;51.496;7.210;2024-03-02T11:19:19;1.97;;;1.00;;
2966;SDS011;1493;51.496;7.210;2024-03-02T11:21:47;3.83;;;1.20;;
2966;SDS011;1493;51.496;7.210;2024-03-02T11:24:34;1.80;;;0.87;;
2966;SDS011;1493;51.496;7.210;2024-03-02T11:27:02;2.70;;;1.03;;
2966;SDS011;1493;51.496;7.210;2024-03-02T11:29:45;2.10;;;1.17;;
2966;SDS011;1493;51.496;7.210;2024-03-02T11:32:13;2.83;;;1.30;;
2966;SDS011;1493;51.496;7.210;2024-03-02T11:34:47;1.63;;;0.83;;
2966;SDS011;1493;51.496;7.210;2024-03-02T11:37:16;2.53;;;1.20;;
2966;SDS011;1493;51.496;7.210;2024-03-02T11:39:45;1.90;;;1.20;;
2966;SDS011;1493;51.496;7.210;2024-03-02T11:42:13;2.53;;;1.20;;
2966;SDS011;1493;51.496;7.210;2024-03-02T11:44:42;2.47;;;1.40;;
2966;SDS011;1493;51.496;7.210;2024-03-02T11:47:10;2.33;;;1.20;;
2966;SDS011;1493;51.496;7.210;2024-03-02T11:49:40;1.70;;;0.90;;
2966;SDS011;1493;51.496;7.210;2024-03-02T11:52:09;2.10;;;1.00;;
2966;SDS011;1493;51.496;7.210;2024-03-02T11:54:38;1.60;;;0.80;;
2966;SDS011;1493;51.496;7.210;2024-03-02T11:57:07;1.97;;;1.00;;
2966;SDS011;1493;51.496;7.210;2024-03-02T11:59:34;2.03;;;1.10;;
2966;SDS011;1493;51.496;7.210;2024-03-02T12:02:01;2.27;;;1.00;;
2966;SDS011;1493;51.496;7.210;2024-03-02T12:04:28;2.93;;;1.07;;
2966;SDS011;1493;51.496;7.210;2024-03-02T12:06:56;1.90;;;1.27;;
2966;SDS011;1493;51.496;7.210;2024-03-02T12:09:25;2.20;;;1.00;;
2966;SDS011;1493;51.496;7.210;2024-03-02T12:12:03;2.00;;;0.90;;
2966;SDS011;1493;51.496;7.210;2024-03-02T12:14:32;2.47;;;0.90;;
2966;SDS011;1493;51.496;7.210;2024-03-02T12:17:00;2.30;;;1.30;;
2966;SDS011;1493;51.496;7.210;2024-03-02T12:19:28;1.63;;;0.93;;
2966;SDS011;1493;51.496;7.210;2024-03-02T12:21:55;2.10;;;1.00;;
2966;SDS011;1493;51.496;7.210;2024-03-02T12:24:23;1.80;;;1.00;;
2966;SDS011;1493;51.496;7.210;2024-03-02T12:26:50;3.30;;;1.00;;
2966;SDS011;1493;51.496;7.210;2024-03-02T12:29:18;3.10;;;1.13;;
2966;SDS011;1493;51.496;7.210;2024-03-02T12:31:49;2.10;;;1.00;;
2966;SDS011;1493;51.496;7.210;2024-03-02T12:34:17;1.80;;;0.90;;
2966;SDS011;1493;51.496;7.210;2024-03-02T12:36:45;3.90;;;1.20;;
2966;SDS011;1493;51.496;7.210;2024-03-02T12:39:18;2.73;;;1.40;;
2966;SDS011;1493;51.496;7.210;2024-03-02T12:41:45;2.73;;;0.97;;
2966;SDS011;1493;51.496;7.210;2024-03-02T12:44:15;2.10;;;1.03;;
2966;SDS011;1493;51.496;7.210;2024-03-02T12:46:42;3.10;;;0.83;;
2966;SDS011;1493;51.496;7.210;2024-03-02T12:49:11;2.90;;;1.03;;
2966;SDS011;1493;51.496;7.210;2024-03-02T12:51:39;2.27;;;1.10;;
2966;SDS011;1493;51.496;7.210;2024-03-02T12:54:07;1.90;;;1.10;;
2966;SDS011;1493;51.496;7.210;2024-03-02T12:56:35;2.33;;;0.90;;
2966;SDS011;1493;51.496;7.210;2024-03-02T12:59:02;2.07;;;0.97;;
2966;SDS011;1493;51.496;7.210;2024-03-02T13:01:30;1.83;;;0.90;;
2966;SDS011;1493;51.496;7.210;2024-03-02T13:03:57;1.77;;;0.90;;
2966;SDS011;1493;51.496;7.210;2024-03-02T13:06:26;2.10;;;1.10;;
2966;SDS011;1493;51.496;7.210;2024-03-02T13:08:54;2.27;;;0.93;;
2966;SDS011;1493;51.496;7.210;2024-03-02T13:11:22;1.87;;;1.00;;
2966;SDS011;1493;51.496;7.210;2024-03-02T13:13:49;1.90;;;0.90;;
2966;SDS011;1493;51.496;7.210;2024-03-02T13:16:17;4.17;;;0.77;;
2966;SDS011;1493;51.496;7.210;2024-03-02T13:18:48;3.40;;;0.87;;
2966;SDS011;1493;51.496;7.210;2024-03-02T13:21:15;1.87;;;0.80;;
2966;SDS011;1493;51.496;7.210;2024-03-02T13:23:43;2.17;;;0.97;;
2966;SDS011;1493;51.496;7.210;2024-03-02T13:26:10;1.77;;;0.93;;
2966;SDS011;1493;51.496;7.210;2024-03-02T13:28:38;1.97;;;0.97;;
2966;SDS011;1493;51.496;7.210;2024-03-02T13:31:05;2.03;;;0.90;;
2966;SDS011;1493;51.496;7.210;2024-03-02T13:33:32;3.80;;;1.23;;
2966;SDS011;1493;51.496;7.210;2024-03-02T13:35:59;2.73;;;0.90;;
2966;SDS011;1493;51.496;7.210;2024-03-02T13:38:26;1.70;;;0.80;;
2966;SDS011;1493;51.496;7.210;2024-03-02T13:40:55;1.70;;;0.80;;
2966;SDS011;1493;51.496;7.210;2024-03-02T13:43:22;4.20;;;1.00;;
2966;SDS011;1493;51.496;7.210;2024-03-02T13:45:49;1.50;;;0.80;;
2966;SDS011;1493;51.496;7.210;2024-03-02T13:48:18;1.63;;;0.70;;
2966;SDS011;1493;51.496;7.210;2024-03-02T13:50:45;1.90;;;1.53;;
2966;SDS011;1493;51.496;7.210;2024-03-02T13:53:12;2.27;;;1.07;;
2966;SDS011;1493;51.496;7.210;2024-03-02T13:55:39;1.90;;;0.83;;
2966;SDS011;1493;51.496;7.210;2024-03-02T13:58:08;2.17;;;0.80;;
2966;SDS011;1493;51.496;7.210;2024-03-02T14:00:36;2.53;;;0.97;;
2966;SDS011;1493;51.496;7.210;2024-03-02T14:03:03;1.73;;;0.80;;
2966;SDS011;1493;51.496;7.210;2024-03-02T14:05:32;2.63;;;1.27;;
2966;SDS011;1493;51.496;7.210;2024-03-02T14:07:59;2.27;;;0.83;;
2966;SDS011;1493;51.496;7.210;2024-03-02T14:10:26;2.10;;;0.90;;
2966;SDS011;1493;51.496;7.210;2024-03-02T14:12:54;1.90;;;0.80;;
2966;SDS011;1493;51.496;7.210;2024-03-02T14:15:23;1.70;;;0.90;;
2966;SDS011;1493;51.496;7.210;2024-03-02T14:17:50;1.90;;;0.97;;
2966;SDS011;1493;51.496;7.210;2024-03-02T14:20:17;4.53;;;0.90;;
2966;SDS011;1493;51.496;7.210;2024-03-02T14:22:47;1.60;;;0.90;;
2966;SDS011;1493;51.496;7.210;2024-03-02T14:25:14;2.43;;;0.80;;
2966;SDS011;1493;51.496;7.210;2024-03-02T14:27:41;1.50;;;0.60;;
2966;SDS011;1493;51.496;7.210;2024-03-02T14:30:09;1.80;;;0.90;;
2966;SDS011;1493;51.496;7.210;2024-03-02T14:32:38;1.47;;;0.70;;
2966;SDS011;1493;51.496;7.210;2024-03-02T14:35:05;4.00;;;0.90;;
2966;SDS011;1493;51.496;7.210;2024-03-02T14:37:35;1.93;;;1.10;;
2966;SDS011;1493;51.496;7.210;2024-03-02T14:40:02;2.57;;;0.80;;
2966;SDS011;1493;51.496;7.210;2024-03-02T14:42:31;2.27;;;0.77;;
2966;SDS011;1493;51.496;7.210;2024-03-02T14:44:58;1.67;;;0.83;;
2966;SDS011;1493;51.496;7.210;2024-03-02T14:47:27;2.37;;;0.90;;
2966;SDS011;1493;51.496;7.210;2024-03-02T14:49:55;1.67;;;0.87;;
2966;SDS011;1493;51.496;7.210;2024-03-02T14:52:22;2.37;;;0.97;;
2966;SDS011;1493;51.496;7.210;2024-03-02T14:54:49;2.40;;;1.40;;
2966;SDS011;1493;51.496;7.210;2024-03-02T14:57:16;1.70;;;0.87;;
2966;SDS011;1493;51.496;7.210;2024-03-02T14:59:43;1.87;;;0.90;;
2966;SDS011;1493;51.496;7.210;2024-03-02T15:02:10;1.50;;;0.80;;
2966;SDS011;1493;51.496;7.210;2024-03-02T15:04:36;2.17;;;1.00;;
2966;SDS011;1493;51.496;7.210;2024-03-02T15:07:05;1.70;;;0.80;;
2966;SDS011;1493;51.496;7.210;2024-03-02T15:09:32;2.90;;;0.87;;
2966;SDS011;1493;51.496;7.210;2024-03-02T15:12:00;2.77;;;1.13;;
2966;SDS011;1493;51.496;7.210;2024-03-02T15:14:28;2.87;;;1.10;;
2966;SDS011;1493;51.496;7.210;2024-03-02T15:16:55;2.30;;;1.47;;
2966;SDS011;1493;51.496;7.210;2024-03-02T15:19:22;1.90;;;1.00;;
2966;SDS011;1493;51.496;7.210;2024-03-02T15:21:49;2.33;;;0.90;;